Archival Weather

Chicago O'Hare International

Chicago, Illinois (KORD)

Report from: Tuesday, February 27, 2024 9:51 PM CST
Current time: Wednesday, May 29, 2024 6:26 PM CDT

Current weather – Weather history – Daily summaries
Weather forecast

Temperature11.7°C (53.1°F)
Dew point10.0°C (50.0°F)
Winds Calm
Visibility10 mi. (16.1 km)
Clouds Few clouds 5,000 ft. (1,524 m)
Altimeter29.21 in.Hg (989 mB)
Relative humidity89 %
Density altitude-2,722 ft. (-830 m)
Sea-level pressure108.9 kPa (1089 mB, 32.16 in.Hg)
Remarks System requires maintenance
Automated weather observing station with precipitation discriminator
Flight conditions Visual Meteorological Conditions
Raw dataKORD 280351Z 00000KT 10SM FEW050 12/10 A2921 RMK AO2 SLP891 T01170100 $
An error has occurred. This application may no longer respond until reloaded. Reload 🗙